sensor_id;sensor_type;location;lat;lon;timestamp;P1;durP1;ratioP1;P2;durP2;ratioP2
17372;SDS011;8803;48.116;11.590;2022-11-20T00:00:13;1.80;;;1.50;;
17372;SDS011;8803;48.116;11.590;2022-11-20T00:02:18;2.20;;;1.80;;
17372;SDS011;8803;48.116;11.590;2022-11-20T00:04:22;2.13;;;1.90;;
17372;SDS011;8803;48.116;11.590;2022-11-20T00:06:34;2.30;;;1.90;;
17372;SDS011;8803;48.116;11.590;2022-11-20T00:08:38;2.10;;;1.90;;
17372;SDS011;8803;48.116;11.590;2022-11-20T00:10:42;2.57;;;1.90;;
17372;SDS011;8803;48.116;11.590;2022-11-20T00:12:46;2.00;;;1.80;;
17372;SDS011;8803;48.116;11.590;2022-11-20T00:14:59;1.97;;;1.77;;
17372;SDS011;8803;48.116;11.590;2022-11-20T00:17:03;1.77;;;1.60;;
17372;SDS011;8803;48.116;11.590;2022-11-20T00:19:07;2.23;;;1.53;;
17372;SDS011;8803;48.116;11.590;2022-11-20T00:21:12;1.73;;;1.63;;
17372;SDS011;8803;48.116;11.590;2022-11-20T00:23:17;2.10;;;1.73;;
17372;SDS011;8803;48.116;11.590;2022-11-20T00:25:29;1.73;;;1.63;;
17372;SDS011;8803;48.116;11.590;2022-11-20T00:27:33;2.47;;;1.77;;
17372;SDS011;8803;48.116;11.590;2022-11-20T00:29:37;1.73;;;1.63;;
17372;SDS011;8803;48.116;11.590;2022-11-20T00:31:41;2.23;;;1.93;;
17372;SDS011;8803;48.116;11.590;2022-11-20T00:33:45;1.93;;;1.50;;
17372;SDS011;8803;48.116;11.590;2022-11-20T00:36:00;2.37;;;2.00;;
17372;SDS011;8803;48.116;11.590;2022-11-20T00:38:05;2.27;;;1.60;;
17372;SDS011;8803;48.116;11.590;2022-11-20T00:40:10;2.10;;;1.90;;
17372;SDS011;8803;48.116;11.590;2022-11-20T00:42:24;1.83;;;1.63;;
17372;SDS011;8803;48.116;11.590;2022-11-20T00:44:27;2.63;;;2.00;;
17372;SDS011;8803;48.116;11.590;2022-11-20T00:46:40;2.10;;;1.83;;
17372;SDS011;8803;48.116;11.590;2022-11-20T00:48:44;1.73;;;1.63;;
17372;SDS011;8803;48.116;11.590;2022-11-20T00:50:49;2.73;;;1.60;;
17372;SDS011;8803;48.116;11.590;2022-11-20T00:52:52;2.23;;;1.83;;
17372;SDS011;8803;48.116;11.590;2022-11-20T00:55:06;2.00;;;1.77;;
17372;SDS011;8803;48.116;11.590;2022-11-20T00:57:10;1.80;;;1.70;;
17372;SDS011;8803;48.116;11.590;2022-11-20T00:59:14;1.73;;;1.63;;
17372;SDS011;8803;48.116;11.590;2022-11-20T01:01:18;2.20;;;1.60;;
17372;SDS011;8803;48.116;11.590;2022-11-20T01:03:25;2.03;;;1.80;;
17372;SDS011;8803;48.116;11.590;2022-11-20T01:05:37;2.10;;;1.83;;
17372;SDS011;8803;48.116;11.590;2022-11-20T01:07:41;1.67;;;1.57;;
17372;SDS011;8803;48.116;11.590;2022-11-20T01:09:45;2.10;;;1.70;;
17372;SDS011;8803;48.116;11.590;2022-11-20T01:11:49;2.03;;;1.80;;
17372;SDS011;8803;48.116;11.590;2022-11-20T01:13:53;2.67;;;1.83;;
17372;SDS011;8803;48.116;11.590;2022-11-20T01:16:10;2.40;;;1.67;;
17372;SDS011;8803;48.116;11.590;2022-11-20T01:18:15;2.07;;;1.70;;
17372;SDS011;8803;48.116;11.590;2022-11-20T01:20:20;2.10;;;1.90;;
17372;SDS011;8803;48.116;11.590;2022-11-20T01:22:24;2.57;;;2.00;;
17372;SDS011;8803;48.116;11.590;2022-11-20T01:24:28;2.23;;;2.03;;
17372;SDS011;8803;48.116;11.590;2022-11-20T01:26:41;2.07;;;1.80;;
17372;SDS011;8803;48.116;11.590;2022-11-20T01:28:46;2.10;;;1.90;;
17372;SDS011;8803;48.116;11.590;2022-11-20T01:30:50;2.40;;;2.20;;
17372;SDS011;8803;48.116;11.590;2022-11-20T01:32:55;2.23;;;2.03;;
17372;SDS011;8803;48.116;11.590;2022-11-20T01:35:08;2.00;;;1.80;;
17372;SDS011;8803;48.116;11.590;2022-11-20T01:37:12;2.13;;;1.90;;
17372;SDS011;8803;48.116;11.590;2022-11-20T01:39:16;4.10;;;2.00;;
17372;SDS011;8803;48.116;11.590;2022-11-20T01:41:21;1.90;;;1.50;;
17372;SDS011;8803;48.116;11.590;2022-11-20T01:43:44;2.10;;;1.90;;
17372;SDS011;8803;48.116;11.590;2022-11-20T01:46:01;2.30;;;2.00;;
17372;SDS011;8803;48.116;11.590;2022-11-20T01:48:12;2.23;;;1.60;;
17372;SDS011;8803;48.116;11.590;2022-11-20T01:50:17;1.93;;;1.67;;
17372;SDS011;8803;48.116;11.590;2022-11-20T01:52:24;2.30;;;1.80;;
17372;SDS011;8803;48.116;11.590;2022-11-20T01:54:31;2.47;;;1.70;;
17372;SDS011;8803;48.116;11.590;2022-11-20T01:56:46;1.87;;;1.70;;
17372;SDS011;8803;48.116;11.590;2022-11-20T01:58:54;1.73;;;1.63;;
17372;SDS011;8803;48.116;11.590;2022-11-20T02:00:58;2.10;;;1.80;;
17372;SDS011;8803;48.116;11.590;2022-11-20T02:03:03;2.17;;;1.70;;
17372;SDS011;8803;48.116;11.590;2022-11-20T02:05:22;2.20;;;1.60;;
17372;SDS011;8803;48.116;11.590;2022-11-20T02:07:27;1.83;;;1.57;;
17372;SDS011;8803;48.116;11.590;2022-11-20T02:09:32;1.73;;;1.63;;
17372;SDS011;8803;48.116;11.590;2022-11-20T02:11:35;1.63;;;1.53;;
17372;SDS011;8803;48.116;11.590;2022-11-20T02:13:39;2.00;;;1.80;;
17372;SDS011;8803;48.116;11.590;2022-11-20T02:15:52;2.50;;;1.73;;
17372;SDS011;8803;48.116;11.590;2022-11-20T02:17:57;1.70;;;1.60;;
17372;SDS011;8803;48.116;11.590;2022-11-20T02:20:01;1.87;;;1.70;;
17372;SDS011;8803;48.116;11.590;2022-11-20T02:22:07;2.23;;;1.60;;
17372;SDS011;8803;48.116;11.590;2022-11-20T02:24:21;1.70;;;1.60;;
17372;SDS011;8803;48.116;11.590;2022-11-20T02:26:26;1.80;;;1.70;;
17372;SDS011;8803;48.116;11.590;2022-11-20T02:28:40;1.43;;;1.33;;
17372;SDS011;8803;48.116;11.590;2022-11-20T02:30:44;2.83;;;1.63;;
17372;SDS011;8803;48.116;11.590;2022-11-20T02:32:47;2.63;;;1.70;;
17372;SDS011;8803;48.116;11.590;2022-11-20T02:37:03;2.10;;;1.63;;
17372;SDS011;8803;48.116;11.590;2022-11-20T02:39:07;2.33;;;1.93;;
17372;SDS011;8803;48.116;11.590;2022-11-20T02:41:12;1.97;;;1.70;;
17372;SDS011;8803;48.116;11.590;2022-11-20T02:43:25;2.30;;;1.70;;
17372;SDS011;8803;48.116;11.590;2022-11-20T02:45:29;1.63;;;1.50;;
17372;SDS011;8803;48.116;11.590;2022-11-20T02:49:44;2.00;;;1.80;;
17372;SDS011;8803;48.116;11.590;2022-11-20T02:51:48;2.77;;;2.10;;
17372;SDS011;8803;48.116;11.590;2022-11-20T02:53:52;1.80;;;1.60;;
17372;SDS011;8803;48.116;11.590;2022-11-20T02:56:06;2.47;;;1.90;;
17372;SDS011;8803;48.116;11.590;2022-11-20T02:58:10;3.33;;;2.23;;
17372;SDS011;8803;48.116;11.590;2022-11-20T03:00:14;2.10;;;1.87;;
17372;SDS011;8803;48.116;11.590;2022-11-20T03:02:31;2.10;;;1.87;;
17372;SDS011;8803;48.116;11.590;2022-11-20T03:04:35;2.20;;;2.00;;
17372;SDS011;8803;48.116;11.590;2022-11-20T03:06:48;2.23;;;1.90;;
17372;SDS011;8803;48.116;11.590;2022-11-20T03:08:52;2.20;;;2.00;;
17372;SDS011;8803;48.116;11.590;2022-11-20T03:10:56;2.00;;;1.90;;
17372;SDS011;8803;48.116;11.590;2022-11-20T03:13:01;2.37;;;2.17;;
17372;SDS011;8803;48.116;11.590;2022-11-20T03:15:17;3.10;;;2.20;;
17372;SDS011;8803;48.116;11.590;2022-11-20T03:17:21;2.07;;;1.87;;
17372;SDS011;8803;48.116;11.590;2022-11-20T03:19:36;2.87;;;2.10;;
17372;SDS011;8803;48.116;11.590;2022-11-20T03:21:40;2.87;;;1.97;;
17372;SDS011;8803;48.116;11.590;2022-11-20T03:23:44;2.87;;;1.87;;
17372;SDS011;8803;48.116;11.590;2022-11-20T03:26:06;2.17;;;1.97;;
17372;SDS011;8803;48.116;11.590;2022-11-20T03:28:15;2.00;;;1.70;;
17372;SDS011;8803;48.116;11.590;2022-11-20T03:30:19;2.00;;;1.80;;
17372;SDS011;8803;48.116;11.590;2022-11-20T03:32:24;2.67;;;2.40;;
17372;SDS011;8803;48.116;11.590;2022-11-20T03:34:28;2.83;;;1.93;;
17372;SDS011;8803;48.116;11.590;2022-11-20T03:36:40;2.17;;;1.97;;
17372;SDS011;8803;48.116;11.590;2022-11-20T03:38:45;2.37;;;2.17;;
17372;SDS011;8803;48.116;11.590;2022-11-20T03:40:49;2.40;;;2.00;;
17372;SDS011;8803;48.116;11.590;2022-11-20T03:42:53;2.43;;;2.07;;
17372;SDS011;8803;48.116;11.590;2022-11-20T03:45:07;2.80;;;2.30;;
17372;SDS011;8803;48.116;11.590;2022-11-20T03:47:11;2.77;;;2.00;;
17372;SDS011;8803;48.116;11.590;2022-11-20T03:49:15;2.63;;;1.63;;
17372;SDS011;8803;48.116;11.590;2022-11-20T03:51:19;2.30;;;2.10;;
17372;SDS011;8803;48.116;11.590;2022-11-20T03:53:24;3.23;;;2.30;;
17372;SDS011;8803;48.116;11.590;2022-11-20T03:55:28;2.33;;;2.13;;
17372;SDS011;8803;48.116;11.590;2022-11-20T03:57:41;2.70;;;2.10;;
17372;SDS011;8803;48.116;11.590;2022-11-20T03:59:45;2.70;;;2.50;;
17372;SDS011;8803;48.116;11.590;2022-11-20T04:01:57;2.40;;;2.20;;
17372;SDS011;8803;48.116;11.590;2022-11-20T04:04:01;2.77;;;2.20;;
17372;SDS011;8803;48.116;11.590;2022-11-20T04:06:15;2.40;;;2.20;;
17372;SDS011;8803;48.116;11.590;2022-11-20T04:08:20;2.67;;;2.40;;
17372;SDS011;8803;48.116;11.590;2022-11-20T04:10:24;2.30;;;2.10;;
17372;SDS011;8803;48.116;11.590;2022-11-20T04:12:27;2.47;;;2.17;;
17372;SDS011;8803;48.116;11.590;2022-11-20T04:14:43;2.40;;;2.00;;
17372;SDS011;8803;48.116;11.590;2022-11-20T04:16:47;2.60;;;2.30;;
17372;SDS011;8803;48.116;11.590;2022-11-20T04:18:52;2.40;;;2.20;;
17372;SDS011;8803;48.116;11.590;2022-11-20T04:20:57;2.60;;;2.30;;
17372;SDS011;8803;48.116;11.590;2022-11-20T04:23:00;3.00;;;2.30;;
17372;SDS011;8803;48.116;11.590;2022-11-20T04:25:13;2.43;;;2.23;;
17372;SDS011;8803;48.116;11.590;2022-11-20T04:27:17;2.87;;;2.57;;
17372;SDS011;8803;48.116;11.590;2022-11-20T04:29:21;2.43;;;2.23;;
17372;SDS011;8803;48.116;11.590;2022-11-20T04:31:26;2.50;;;2.30;;
17372;SDS011;8803;48.116;11.590;2022-11-20T04:33:30;2.80;;;2.00;;
17372;SDS011;8803;48.116;11.590;2022-11-20T04:35:43;2.50;;;2.30;;
17372;SDS011;8803;48.116;11.590;2022-11-20T04:37:51;2.20;;;2.00;;
17372;SDS011;8803;48.116;11.590;2022-11-20T04:40:05;2.47;;;2.00;;
17372;SDS011;8803;48.116;11.590;2022-11-20T04:42:10;2.43;;;2.20;;
17372;SDS011;8803;48.116;11.590;2022-11-20T04:44:32;2.23;;;2.03;;
17372;SDS011;8803;48.116;11.590;2022-11-20T04:46:44;2.80;;;2.37;;
17372;SDS011;8803;48.116;11.590;2022-11-20T04:48:48;2.37;;;2.17;;
17372;SDS011;8803;48.116;11.590;2022-11-20T04:51:03;2.50;;;2.30;;
17372;SDS011;8803;48.116;11.590;2022-11-20T04:53:07;1.90;;;1.80;;
17372;SDS011;8803;48.116;11.590;2022-11-20T04:55:30;2.23;;;2.07;;
17372;SDS011;8803;48.116;11.590;2022-11-20T04:57:34;2.30;;;2.10;;
17372;SDS011;8803;48.116;11.590;2022-11-20T04:59:37;2.30;;;2.10;;
17372;SDS011;8803;48.116;11.590;2022-11-20T05:01:41;2.40;;;2.17;;
17372;SDS011;8803;48.116;11.590;2022-11-20T05:05:57;2.27;;;2.07;;
17372;SDS011;8803;48.116;11.590;2022-11-20T05:08:03;2.93;;;2.23;;
17372;SDS011;8803;48.116;11.590;2022-11-20T05:10:08;2.57;;;2.37;;
17372;SDS011;8803;48.116;11.590;2022-11-20T05:12:12;2.53;;;2.33;;
17372;SDS011;8803;48.116;11.590;2022-11-20T05:14:16;2.47;;;2.27;;
17372;SDS011;8803;48.116;11.590;2022-11-20T05:16:29;2.87;;;2.30;;
17372;SDS011;8803;48.116;11.590;2022-11-20T05:18:33;2.57;;;2.33;;
17372;SDS011;8803;48.116;11.590;2022-11-20T05:20:37;2.87;;;2.00;;
17372;SDS011;8803;48.116;11.590;2022-11-20T05:22:41;2.30;;;2.10;;
17372;SDS011;8803;48.116;11.590;2022-11-20T05:24:54;3.40;;;2.60;;
17372;SDS011;8803;48.116;11.590;2022-11-20T05:26:58;3.37;;;2.37;;
17372;SDS011;8803;48.116;11.590;2022-11-20T05:29:02;2.30;;;2.10;;
17372;SDS011;8803;48.116;11.590;2022-11-20T05:31:06;2.60;;;2.40;;
17372;SDS011;8803;48.116;11.590;2022-11-20T05:33:19;3.10;;;2.70;;
17372;SDS011;8803;48.116;11.590;2022-11-20T05:35:24;2.20;;;1.87;;
17372;SDS011;8803;48.116;11.590;2022-11-20T05:37:37;2.43;;;2.20;;
17372;SDS011;8803;48.116;11.590;2022-11-20T05:39:40;3.20;;;2.20;;
17372;SDS011;8803;48.116;11.590;2022-11-20T05:43:56;2.50;;;2.30;;
17372;SDS011;8803;48.116;11.590;2022-11-20T05:46:00;3.23;;;2.17;;
17372;SDS011;8803;48.116;11.590;2022-11-20T05:48:13;2.93;;;2.17;;
17372;SDS011;8803;48.116;11.590;2022-11-20T05:50:16;2.60;;;2.40;;
17372;SDS011;8803;48.116;11.590;2022-11-20T05:52:20;2.97;;;2.30;;
17372;SDS011;8803;48.116;11.590;2022-11-20T05:54:24;2.70;;;2.30;;
17372;SDS011;8803;48.116;11.590;2022-11-20T05:56:37;2.80;;;2.20;;
17372;SDS011;8803;48.116;11.590;2022-11-20T05:58:41;3.73;;;2.00;;
17372;SDS011;8803;48.116;11.590;2022-11-20T06:00:45;2.27;;;2.07;;
17372;SDS011;8803;48.116;11.590;2022-11-20T06:02:49;2.63;;;2.40;;
17372;SDS011;8803;48.116;11.590;2022-11-20T06:04:53;2.50;;;2.30;;
17372;SDS011;8803;48.116;11.590;2022-11-20T06:07:05;2.60;;;2.40;;
17372;SDS011;8803;48.116;11.590;2022-11-20T06:11:22;2.20;;;2.00;;
17372;SDS011;8803;48.116;11.590;2022-11-20T06:13:27;2.20;;;2.00;;
17372;SDS011;8803;48.116;11.590;2022-11-20T06:15:39;3.37;;;2.00;;
17372;SDS011;8803;48.116;11.590;2022-11-20T06:17:43;2.47;;;2.17;;
17372;SDS011;8803;48.116;11.590;2022-11-20T06:19:47;2.77;;;2.20;;
17372;SDS011;8803;48.116;11.590;2022-11-20T06:21:50;2.33;;;2.00;;
17372;SDS011;8803;48.116;11.590;2022-11-20T06:23:54;2.53;;;2.33;;
17372;SDS011;8803;48.116;11.590;2022-11-20T06:26:07;2.07;;;1.87;;
17372;SDS011;8803;48.116;11.590;2022-11-20T06:28:13;2.20;;;2.00;;
17372;SDS011;8803;48.116;11.590;2022-11-20T06:30:17;2.47;;;2.10;;
17372;SDS011;8803;48.116;11.590;2022-11-20T06:32:21;2.00;;;1.80;;
17372;SDS011;8803;48.116;11.590;2022-11-20T06:34:33;3.13;;;2.00;;
17372;SDS011;8803;48.116;11.590;2022-11-20T06:36:37;3.03;;;2.40;;
17372;SDS011;8803;48.116;11.590;2022-11-20T06:38:50;3.00;;;2.37;;
17372;SDS011;8803;48.116;11.590;2022-11-20T06:40:54;2.47;;;2.27;;
17372;SDS011;8803;48.116;11.590;2022-11-20T06:43:06;2.37;;;2.13;;
17372;SDS011;8803;48.116;11.590;2022-11-20T06:45:10;3.43;;;1.90;;
17372;SDS011;8803;48.116;11.590;2022-11-20T06:47:23;2.07;;;1.87;;
17372;SDS011;8803;48.116;11.590;2022-11-20T06:49:26;2.70;;;1.97;;
17372;SDS011;8803;48.116;11.590;2022-11-20T06:51:30;1.97;;;1.77;;
17372;SDS011;8803;48.116;11.590;2022-11-20T06:53:34;2.07;;;1.87;;
17372;SDS011;8803;48.116;11.590;2022-11-20T06:55:47;2.20;;;1.90;;
17372;SDS011;8803;48.116;11.590;2022-11-20T06:57:52;2.70;;;1.70;;
17372;SDS011;8803;48.116;11.590;2022-11-20T06:59:56;2.10;;;1.90;;
17372;SDS011;8803;48.116;11.590;2022-11-20T07:01:59;2.70;;;2.50;;
17372;SDS011;8803;48.116;11.590;2022-11-20T07:04:04;2.67;;;2.47;;
17372;SDS011;8803;48.116;11.590;2022-11-20T07:06:20;2.90;;;2.53;;
17372;SDS011;8803;48.116;11.590;2022-11-20T07:08:23;2.37;;;2.10;;
17372;SDS011;8803;48.116;11.590;2022-11-20T07:10:27;3.33;;;1.90;;
17372;SDS011;8803;48.116;11.590;2022-11-20T07:12:31;2.53;;;1.77;;
17372;SDS011;8803;48.116;11.590;2022-11-20T07:16:46;1.97;;;1.77;;
17372;SDS011;8803;48.116;11.590;2022-11-20T07:18:51;1.80;;;1.70;;
17372;SDS011;8803;48.116;11.590;2022-11-20T07:20:55;2.10;;;1.67;;
17372;SDS011;8803;48.116;11.590;2022-11-20T07:23:00;1.77;;;1.67;;
17372;SDS011;8803;48.116;11.590;2022-11-20T07:25:13;2.40;;;2.00;;
17372;SDS011;8803;48.116;11.590;2022-11-20T07:27:17;2.57;;;1.80;;
17372;SDS011;8803;48.116;11.590;2022-11-20T07:29:21;2.40;;;1.87;;
17372;SDS011;8803;48.116;11.590;2022-11-20T07:31:24;3.30;;;2.07;;
17372;SDS011;8803;48.116;11.590;2022-11-20T07:33:28;2.27;;;2.10;;
17372;SDS011;8803;48.116;11.590;2022-11-20T07:35:41;2.03;;;1.87;;
17372;SDS011;8803;48.116;11.590;2022-11-20T07:37:45;2.20;;;1.97;;
17372;SDS011;8803;48.116;11.590;2022-11-20T07:39:49;2.40;;;2.20;;
17372;SDS011;8803;48.116;11.590;2022-11-20T07:41:53;2.50;;;2.27;;
17372;SDS011;8803;48.116;11.590;2022-11-20T07:43:57;2.50;;;2.30;;
17372;SDS011;8803;48.116;11.590;2022-11-20T07:46:10;2.17;;;1.97;;
17372;SDS011;8803;48.116;11.590;2022-11-20T07:48:13;2.43;;;1.90;;
17372;SDS011;8803;48.116;11.590;2022-11-20T07:50:26;2.30;;;2.10;;
17372;SDS011;8803;48.116;11.590;2022-11-20T07:52:30;2.37;;;2.17;;
17372;SDS011;8803;48.116;11.590;2022-11-20T07:56:45;2.50;;;2.20;;
17372;SDS011;8803;48.116;11.590;2022-11-20T07:58:49;2.23;;;2.03;;
17372;SDS011;8803;48.116;11.590;2022-11-20T08:00:53;3.00;;;2.07;;
17372;SDS011;8803;48.116;11.590;2022-11-20T08:03:06;2.50;;;1.93;;
17372;SDS011;8803;48.116;11.590;2022-11-20T08:05:10;2.00;;;1.83;;
17372;SDS011;8803;48.116;11.590;2022-11-20T08:07:25;2.00;;;1.70;;
17372;SDS011;8803;48.116;11.590;2022-11-20T08:09:29;2.23;;;1.93;;
17372;SDS011;8803;48.116;11.590;2022-11-20T08:11:41;3.67;;;2.00;;
17372;SDS011;8803;48.116;11.590;2022-11-20T08:14:03;2.63;;;1.70;;
17372;SDS011;8803;48.116;11.590;2022-11-20T08:16:15;2.80;;;1.90;;
17372;SDS011;8803;48.116;11.590;2022-11-20T08:18:19;2.10;;;1.90;;
17372;SDS011;8803;48.116;11.590;2022-11-20T08:20:23;1.90;;;1.80;;
17372;SDS011;8803;48.116;11.590;2022-11-20T08:22:38;2.70;;;2.13;;
17372;SDS011;8803;48.116;11.590;2022-11-20T08:24:42;2.37;;;2.10;;
17372;SDS011;8803;48.116;11.590;2022-11-20T08:26:56;4.53;;;2.10;;
17372;SDS011;8803;48.116;11.590;2022-11-20T08:29:00;2.17;;;1.97;;
17372;SDS011;8803;48.116;11.590;2022-11-20T08:31:05;3.30;;;2.20;;
17372;SDS011;8803;48.116;11.590;2022-11-20T08:33:11;2.20;;;2.00;;
17372;SDS011;8803;48.116;11.590;2022-11-20T08:35:23;1.47;;;1.37;;
17372;SDS011;8803;48.116;11.590;2022-11-20T08:37:27;2.10;;;1.90;;
17372;SDS011;8803;48.116;11.590;2022-11-20T08:39:40;2.40;;;1.90;;
17372;SDS011;8803;48.116;11.590;2022-11-20T08:41:44;1.67;;;1.57;;
17372;SDS011;8803;48.116;11.590;2022-11-20T08:44:00;1.93;;;1.70;;
17372;SDS011;8803;48.116;11.590;2022-11-20T08:46:05;1.77;;;1.67;;
17372;SDS011;8803;48.116;11.590;2022-11-20T08:48:17;2.93;;;2.20;;
17372;SDS011;8803;48.116;11.590;2022-11-20T08:50:22;2.00;;;1.80;;
17372;SDS011;8803;48.116;11.590;2022-11-20T08:52:34;2.10;;;1.90;;
17372;SDS011;8803;48.116;11.590;2022-11-20T08:54:38;2.13;;;1.87;;
17372;SDS011;8803;48.116;11.590;2022-11-20T08:56:42;2.00;;;1.40;;
17372;SDS011;8803;48.116;11.590;2022-11-20T08:58:46;1.77;;;1.67;;
17372;SDS011;8803;48.116;11.590;2022-11-20T09:00:51;2.27;;;1.83;;
17372;SDS011;8803;48.116;11.590;2022-11-20T09:03:04;1.80;;;1.70;;
17372;SDS011;8803;48.116;11.590;2022-11-20T09:05:08;1.67;;;1.53;;
17372;SDS011;8803;48.116;11.590;2022-11-20T09:07:21;1.47;;;1.37;;
17372;SDS011;8803;48.116;11.590;2022-11-20T09:09:25;1.80;;;1.60;;
17372;SDS011;8803;48.116;11.590;2022-11-20T09:11:29;1.70;;;1.60;;
17372;SDS011;8803;48.116;11.590;2022-11-20T09:13:33;1.60;;;1.50;;
17372;SDS011;8803;48.116;11.590;2022-11-20T09:15:46;2.13;;;1.60;;
17372;SDS011;8803;48.116;11.590;2022-11-20T09:17:52;2.00;;;1.70;;
17372;SDS011;8803;48.116;11.590;2022-11-20T09:19:56;2.50;;;2.00;;
17372;SDS011;8803;48.116;11.590;2022-11-20T09:22:00;2.03;;;1.80;;
17372;SDS011;8803;48.116;11.590;2022-11-20T09:24:05;2.47;;;1.80;;
17372;SDS011;8803;48.116;11.590;2022-11-20T09:26:18;1.87;;;1.60;;
17372;SDS011;8803;48.116;11.590;2022-11-20T09:28:22;2.53;;;1.53;;
17372;SDS011;8803;48.116;11.590;2022-11-20T09:30:26;1.70;;;1.40;;
17372;SDS011;8803;48.116;11.590;2022-11-20T09:32:30;1.33;;;1.23;;
17372;SDS011;8803;48.116;11.590;2022-11-20T09:34:34;1.90;;;1.70;;
17372;SDS011;8803;48.116;11.590;2022-11-20T09:36:37;1.50;;;1.37;;
17372;SDS011;8803;48.116;11.590;2022-11-20T09:38:50;1.27;;;1.17;;
17372;SDS011;8803;48.116;11.590;2022-11-20T09:43:09;2.03;;;0.97;;
17372;SDS011;8803;48.116;11.590;2022-11-20T09:47:32;1.40;;;1.20;;
17372;SDS011;8803;48.116;11.590;2022-11-20T09:49:45;1.87;;;1.40;;
17372;SDS011;8803;48.116;11.590;2022-11-20T09:51:56;1.47;;;1.27;;
17372;SDS011;8803;48.116;11.590;2022-11-20T09:54:14;1.43;;;1.23;;
17372;SDS011;8803;48.116;11.590;2022-11-20T09:56:21;2.07;;;1.37;;
17372;SDS011;8803;48.116;11.590;2022-11-20T09:58:37;1.53;;;1.33;;
17372;SDS011;8803;48.116;11.590;2022-11-20T10:00:41;1.37;;;1.27;;
17372;SDS011;8803;48.116;11.590;2022-11-20T10:02:47;1.00;;;0.97;;
17372;SDS011;8803;48.116;11.590;2022-11-20T10:07:04;1.73;;;1.30;;
17372;SDS011;8803;48.116;11.590;2022-11-20T10:09:16;1.27;;;1.00;;
17372;SDS011;8803;48.116;11.590;2022-11-20T10:11:24;2.03;;;1.37;;
17372;SDS011;8803;48.116;11.590;2022-11-20T10:13:35;2.37;;;1.60;;
17372;SDS011;8803;48.116;11.590;2022-11-20T10:15:42;1.70;;;1.53;;
17372;SDS011;8803;48.116;11.590;2022-11-20T10:17:53;1.57;;;1.40;;
17372;SDS011;8803;48.116;11.590;2022-11-20T10:20:21;1.67;;;1.40;;
17372;SDS011;8803;48.116;11.590;2022-11-20T10:22:32;2.33;;;1.50;;
17372;SDS011;8803;48.116;11.590;2022-11-20T10:24:44;1.50;;;1.40;;
17372;SDS011;8803;48.116;11.590;2022-11-20T10:27:06;2.77;;;1.00;;
17372;SDS011;8803;48.116;11.590;2022-11-20T10:29:12;1.23;;;1.10;;
17372;SDS011;8803;48.116;11.590;2022-11-20T10:31:23;2.03;;;1.10;;
17372;SDS011;8803;48.116;11.590;2022-11-20T10:33:29;1.50;;;1.20;;
17372;SDS011;8803;48.116;11.590;2022-11-20T10:35:42;1.53;;;1.33;;
17372;SDS011;8803;48.116;11.590;2022-11-20T10:37:50;1.87;;;1.40;;
17372;SDS011;8803;48.116;11.590;2022-11-20T10:39:58;11.20;;;7.80;;
17372;SDS011;8803;48.116;11.590;2022-11-20T10:42:07;5.77;;;4.30;;
17372;SDS011;8803;48.116;11.590;2022-11-20T10:44:15;2.37;;;1.73;;
17372;SDS011;8803;48.116;11.590;2022-11-20T10:46:29;1.63;;;1.40;;
17372;SDS011;8803;48.116;11.590;2022-11-20T10:48:38;1.73;;;1.20;;
17372;SDS011;8803;48.116;11.590;2022-11-20T10:50:48;1.50;;;1.20;;
17372;SDS011;8803;48.116;11.590;2022-11-20T10:52:59;1.27;;;1.00;;
17372;SDS011;8803;48.116;11.590;2022-11-20T10:55:06;1.80;;;1.20;;
17372;SDS011;8803;48.116;11.590;2022-11-20T10:57:25;1.13;;;1.03;;
17372;SDS011;8803;48.116;11.590;2022-11-20T10:59:44;1.10;;;1.00;;
17372;SDS011;8803;48.116;11.590;2022-11-20T11:01:55;0.80;;;0.80;;
17372;SDS011;8803;48.116;11.590;2022-11-20T11:04:14;1.97;;;1.00;;
17372;SDS011;8803;48.116;11.590;2022-11-20T11:08:32;1.10;;;1.00;;
17372;SDS011;8803;48.116;11.590;2022-11-20T11:10:42;2.30;;;1.27;;
17372;SDS011;8803;48.116;11.590;2022-11-20T11:12:54;1.00;;;0.90;;
17372;SDS011;8803;48.116;11.590;2022-11-20T11:14:57;3.20;;;1.40;;
17372;SDS011;8803;48.116;11.590;2022-11-20T11:17:19;1.23;;;1.13;;
17372;SDS011;8803;48.116;11.590;2022-11-20T11:19:24;2.70;;;1.10;;
17372;SDS011;8803;48.116;11.590;2022-11-20T11:21:28;1.50;;;1.10;;
17372;SDS011;8803;48.116;11.590;2022-11-20T11:23:41;1.33;;;1.20;;
17372;SDS011;8803;48.116;11.590;2022-11-20T11:27:59;1.30;;;1.20;;
17372;SDS011;8803;48.116;11.590;2022-11-20T11:30:14;1.70;;;1.10;;
17372;SDS011;8803;48.116;11.590;2022-11-20T11:32:20;1.23;;;1.07;;
17372;SDS011;8803;48.116;11.590;2022-11-20T11:34:33;1.20;;;0.90;;
17372;SDS011;8803;48.116;11.590;2022-11-20T11:36:38;0.87;;;0.83;;
17372;SDS011;8803;48.116;11.590;2022-11-20T11:38:51;1.23;;;0.90;;
17372;SDS011;8803;48.116;11.590;2022-11-20T11:40:56;1.20;;;1.10;;
17372;SDS011;8803;48.116;11.590;2022-11-20T11:45:13;1.20;;;1.10;;
17372;SDS011;8803;48.116;11.590;2022-11-20T11:47:20;1.13;;;1.03;;
17372;SDS011;8803;48.116;11.590;2022-11-20T11:49:35;1.13;;;1.03;;
17372;SDS011;8803;48.116;11.590;2022-11-20T11:51:41;1.50;;;1.30;;
17372;SDS011;8803;48.116;11.590;2022-11-20T11:53:53;1.20;;;1.10;;
17372;SDS011;8803;48.116;11.590;2022-11-20T11:56:02;2.77;;;1.37;;
17372;SDS011;8803;48.116;11.590;2022-11-20T11:58:19;1.20;;;1.10;;
17372;SDS011;8803;48.116;11.590;2022-11-20T12:00:27;1.30;;;1.20;;
17372;SDS011;8803;48.116;11.590;2022-11-20T12:02:34;1.07;;;0.97;;
17372;SDS011;8803;48.116;11.590;2022-11-20T12:04:42;2.20;;;1.60;;
17372;SDS011;8803;48.116;11.590;2022-11-20T12:06:58;1.67;;;1.40;;
17372;SDS011;8803;48.116;11.590;2022-11-20T12:09:04;1.33;;;1.23;;
17372;SDS011;8803;48.116;11.590;2022-11-20T12:11:12;1.20;;;1.10;;
17372;SDS011;8803;48.116;11.590;2022-11-20T12:13:21;1.70;;;1.60;;
17372;SDS011;8803;48.116;11.590;2022-11-20T12:15:38;1.63;;;1.50;;
17372;SDS011;8803;48.116;11.590;2022-11-20T12:17:45;1.73;;;1.20;;
17372;SDS011;8803;48.116;11.590;2022-11-20T12:19:48;2.30;;;1.30;;
17372;SDS011;8803;48.116;11.590;2022-11-20T12:21:56;1.57;;;1.07;;
17372;SDS011;8803;48.116;11.590;2022-11-20T12:24:18;1.87;;;1.50;;
17372;SDS011;8803;48.116;11.590;2022-11-20T12:26:33;2.20;;;1.57;;
17372;SDS011;8803;48.116;11.590;2022-11-20T12:28:51;1.53;;;1.43;;
17372;SDS011;8803;48.116;11.590;2022-11-20T12:31:03;1.87;;;1.60;;
17372;SDS011;8803;48.116;11.590;2022-11-20T12:33:25;1.47;;;1.33;;
17372;SDS011;8803;48.116;11.590;2022-11-20T12:35:56;1.17;;;1.07;;
17372;SDS011;8803;48.116;11.590;2022-11-20T12:38:08;2.60;;;1.20;;
17372;SDS011;8803;48.116;11.590;2022-11-20T12:40:28;1.63;;;1.17;;
17372;SDS011;8803;48.116;11.590;2022-11-20T12:42:45;1.63;;;1.30;;
17372;SDS011;8803;48.116;11.590;2022-11-20T12:45:24;1.93;;;1.20;;
17372;SDS011;8803;48.116;11.590;2022-11-20T12:48:16;1.73;;;1.47;;
17372;SDS011;8803;48.116;11.590;2022-11-20T12:50:34;2.03;;;1.13;;
17372;SDS011;8803;48.116;11.590;2022-11-20T12:52:43;1.57;;;1.20;;
17372;SDS011;8803;48.116;11.590;2022-11-20T12:55:03;1.10;;;1.00;;
17372;SDS011;8803;48.116;11.590;2022-11-20T12:57:20;1.40;;;1.10;;
17372;SDS011;8803;48.116;11.590;2022-11-20T12:59:38;1.57;;;1.30;;
17372;SDS011;8803;48.116;11.590;2022-11-20T13:01:47;1.53;;;1.13;;
17372;SDS011;8803;48.116;11.590;2022-11-20T13:04:12;1.43;;;1.10;;
17372;SDS011;8803;48.116;11.590;2022-11-20T13:06:10;1.47;;;1.20;;
17372;SDS011;8803;48.116;11.590;2022-11-20T13:08:25;1.30;;;1.20;;
17372;SDS011;8803;48.116;11.590;2022-11-20T13:10:34;2.10;;;1.20;;
17372;SDS011;8803;48.116;11.590;2022-11-20T13:12:49;2.03;;;1.27;;
17372;SDS011;8803;48.116;11.590;2022-11-20T13:14:57;1.70;;;1.23;;
17372;SDS011;8803;48.116;11.590;2022-11-20T13:17:11;2.13;;;1.40;;
17372;SDS011;8803;48.116;11.590;2022-11-20T13:19:17;1.60;;;1.30;;
17372;SDS011;8803;48.116;11.590;2022-11-20T13:21:36;1.40;;;1.30;;